sensor_id;sensor_type;location;lat;lon;timestamp;P1;P2;P0
65012;PMS5003;51715;39.432;-77.518;2023-02-28T00:01:34;18;18;
65012;PMS5003;51715;39.432;-77.518;2023-02-28T00:04:02;22;21;
65012;PMS5003;51715;39.432;-77.518;2023-02-28T00:06:30;26;23;
65012;PMS5003;51715;39.432;-77.518;2023-02-28T00:08:59;22;20;
65012;PMS5003;51715;39.432;-77.518;2023-02-28T00:11:28;21;18;
65012;PMS5003;51715;39.432;-77.518;2023-02-28T00:13:56;23;21;
65012;PMS5003;51715;39.432;-77.518;2023-02-28T00:16:25;15;15;
65012;PMS5003;51715;39.432;-77.518;2023-02-28T00:18:54;19;17;
65012;PMS5003;51715;39.432;-77.518;2023-02-28T00:21:22;18;18;
65012;PMS5003;51715;39.432;-77.518;2023-02-28T00:23:50;25;21;
65012;PMS5003;51715;39.432;-77.518;2023-02-28T00:26:18;25;22;
65012;PMS5003;51715;39.432;-77.518;2023-02-28T00:28:47;19;17;
65012;PMS5003;51715;39.432;-77.518;2023-02-28T00:31:15;26;25;
65012;PMS5003;51715;39.432;-77.518;2023-02-28T00:33:45;25;24;
65012;PMS5003;51715;39.432;-77.518;2023-02-28T00:36:14;20;20;
65012;PMS5003;51715;39.432;-77.518;2023-02-28T00:38:43;23;22;
65012;PMS5003;51715;39.432;-77.518;2023-02-28T00:41:12;23;21;
65012;PMS5003;51715;39.432;-77.518;2023-02-28T00:43:41;26;25;
65012;PMS5003;51715;39.432;-77.518;2023-02-28T00:46:09;22;21;
65012;PMS5003;51715;39.432;-77.518;2023-02-28T00:48:37;24;20;
65012;PMS5003;51715;39.432;-77.518;2023-02-28T00:51:06;19;18;
65012;PMS5003;51715;39.432;-77.518;2023-02-28T00:53:34;21;19;
65012;PMS5003;51715;39.432;-77.518;2023-02-28T00:56:02;23;19;
65012;PMS5003;51715;39.432;-77.518;2023-02-28T00:58:31;25;23;
65012;PMS5003;51715;39.432;-77.518;2023-02-28T01:01:00;22;21;
65012;PMS5003;51715;39.432;-77.518;2023-02-28T01:03:29;28;26;
65012;PMS5003;51715;39.432;-77.518;2023-02-28T01:05:57;26;22;
65012;PMS5003;51715;39.432;-77.518;2023-02-28T01:08:26;22;21;
65012;PMS5003;51715;39.432;-77.518;2023-02-28T01:10:56;22;18;
65012;PMS5003;51715;39.432;-77.518;2023-02-28T01:11:07;25;23;
65012;PMS5003;51715;39.432;-77.518;2023-02-28T01:13:38;25;24;
65012;PMS5003;51715;39.432;-77.518;2023-02-28T01:16:07;26;20;
65012;PMS5003;51715;39.432;-77.518;2023-02-28T01:18:37;25;20;
65012;PMS5003;51715;39.432;-77.518;2023-02-28T01:21:07;26;22;
65012;PMS5003;51715;39.432;-77.518;2023-02-28T01:23:38;25;23;
65012;PMS5003;51715;39.432;-77.518;2023-02-28T01:26:09;25;25;
65012;PMS5003;51715;39.432;-77.518;2023-02-28T01:28:40;21;18;
65012;PMS5003;51715;39.432;-77.518;2023-02-28T01:31:08;24;18;
65012;PMS5003;51715;39.432;-77.518;2023-02-28T01:33:38;27;21;
65012;PMS5003;51715;39.432;-77.518;2023-02-28T01:36:09;28;24;
65012;PMS5003;51715;39.432;-77.518;2023-02-28T01:38:39;27;23;
65012;PMS5003;51715;39.432;-77.518;2023-02-28T01:41:09;21;21;
65012;PMS5003;51715;39.432;-77.518;2023-02-28T01:44:00;24;23;
65012;PMS5003;51715;39.432;-77.518;2023-02-28T01:46:31;26;23;
65012;PMS5003;51715;39.432;-77.518;2023-02-28T01:49:03;22;19;
65012;PMS5003;51715;39.432;-77.518;2023-02-28T01:51:37;20;18;
65012;PMS5003;51715;39.432;-77.518;2023-02-28T01:54:09;21;19;
65012;PMS5003;51715;39.432;-77.518;2023-02-28T01:56:44;17;17;
65012;PMS5003;51715;39.432;-77.518;2023-02-28T01:59:22;21;21;
65012;PMS5003;51715;39.432;-77.518;2023-02-28T02:01:57;24;21;
65012;PMS5003;51715;39.432;-77.518;2023-02-28T02:04:27;25;23;
65012;PMS5003;51715;39.432;-77.518;2023-02-28T02:07:06;22;22;
65012;PMS5003;51715;39.432;-77.518;2023-02-28T02:09:36;19;17;
65012;PMS5003;51715;39.432;-77.518;2023-02-28T02:12:07;25;23;
65012;PMS5003;51715;39.432;-77.518;2023-02-28T02:14:50;19;18;
65012;PMS5003;51715;39.432;-77.518;2023-02-28T02:17:33;19;19;
65012;PMS5003;51715;39.432;-77.518;2023-02-28T02:20:33;23;21;
65012;PMS5003;51715;39.432;-77.518;2023-02-28T02:23:30;18;18;
65012;PMS5003;51715;39.432;-77.518;2023-02-28T02:26:27;23;22;
65012;PMS5003;51715;39.432;-77.518;2023-02-28T02:29:16;19;18;
65012;PMS5003;51715;39.432;-77.518;2023-02-28T02:32:08;20;20;
65012;PMS5003;51715;39.432;-77.518;2023-02-28T02:34:52;16;16;
65012;PMS5003;51715;39.432;-77.518;2023-02-28T02:37:30;20;18;
65012;PMS5003;51715;39.432;-77.518;2023-02-28T02:40:09;21;21;
65012;PMS5003;51715;39.432;-77.518;2023-02-28T02:42:44;19;19;
65012;PMS5003;51715;39.432;-77.518;2023-02-28T02:45:18;27;25;
65012;PMS5003;51715;39.432;-77.518;2023-02-28T02:47:51;28;22;
65012;PMS5003;51715;39.432;-77.518;2023-02-28T02:50:24;23;23;
65012;PMS5003;51715;39.432;-77.518;2023-02-28T02:52:57;25;23;
65012;PMS5003;51715;39.432;-77.518;2023-02-28T02:55:29;25;22;
65012;PMS5003;51715;39.432;-77.518;2023-02-28T02:58:02;24;22;
65012;PMS5003;51715;39.432;-77.518;2023-02-28T03:00:35;22;22;
65012;PMS5003;51715;39.432;-77.518;2023-02-28T03:03:08;21;18;
65012;PMS5003;51715;39.432;-77.518;2023-02-28T03:05:41;27;23;
65012;PMS5003;51715;39.432;-77.518;2023-02-28T03:08:13;23;23;
65012;PMS5003;51715;39.432;-77.518;2023-02-28T03:10:43;26;25;
65012;PMS5003;51715;39.432;-77.518;2023-02-28T03:13:25;24;22;
65012;PMS5003;51715;39.432;-77.518;2023-02-28T03:17:12;50;48;
65012;PMS5003;51715;39.432;-77.518;2023-02-28T03:19:52;25;19;
65012;PMS5003;51715;39.432;-77.518;2023-02-28T03:22:33;22;19;
65012;PMS5003;51715;39.432;-77.518;2023-02-28T03:25:20;19;18;
65012;PMS5003;51715;39.432;-77.518;2023-02-28T03:28:00;18;15;
65012;PMS5003;51715;39.432;-77.518;2023-02-28T03:30:37;15;15;
65012;PMS5003;51715;39.432;-77.518;2023-02-28T03:33:13;20;18;
65012;PMS5003;51715;39.432;-77.518;2023-02-28T03:35:48;20;18;
65012;PMS5003;51715;39.432;-77.518;2023-02-28T03:38:24;21;20;
65012;PMS5003;51715;39.432;-77.518;2023-02-28T03:41:00;16;16;
65012;PMS5003;51715;39.432;-77.518;2023-02-28T03:43:33;23;21;
65012;PMS5003;51715;39.432;-77.518;2023-02-28T03:46:07;23;21;
65012;PMS5003;51715;39.432;-77.518;2023-02-28T03:48:40;16;15;
65012;PMS5003;51715;39.432;-77.518;2023-02-28T03:51:14;19;19;
65012;PMS5003;51715;39.432;-77.518;2023-02-28T03:53:45;21;19;
65012;PMS5003;51715;39.432;-77.518;2023-02-28T03:56:17;26;25;
65012;PMS5003;51715;39.432;-77.518;2023-02-28T03:58:53;21;21;
65012;PMS5003;51715;39.432;-77.518;2023-02-28T04:01:27;20;19;
65012;PMS5003;51715;39.432;-77.518;2023-02-28T04:04:02;23;21;
65012;PMS5003;51715;39.432;-77.518;2023-02-28T04:06:31;20;17;
65012;PMS5003;51715;39.432;-77.518;2023-02-28T04:09:00;16;14;
65012;PMS5003;51715;39.432;-77.518;2023-02-28T04:11:31;23;23;
65012;PMS5003;51715;39.432;-77.518;2023-02-28T04:14:01;21;18;
65012;PMS5003;51715;39.432;-77.518;2023-02-28T04:16:30;21;20;
65012;PMS5003;51715;39.432;-77.518;2023-02-28T04:18:59;21;20;
65012;PMS5003;51715;39.432;-77.518;2023-02-28T04:21:28;24;23;
65012;PMS5003;51715;39.432;-77.518;2023-02-28T04:23:57;23;19;
65012;PMS5003;51715;39.432;-77.518;2023-02-28T04:26:27;19;19;
65012;PMS5003;51715;39.432;-77.518;2023-02-28T04:28:57;20;19;
65012;PMS5003;51715;39.432;-77.518;2023-02-28T04:31:26;20;20;
65012;PMS5003;51715;39.432;-77.518;2023-02-28T04:33:54;25;23;
65012;PMS5003;51715;39.432;-77.518;2023-02-28T04:36:22;22;22;
65012;PMS5003;51715;39.432;-77.518;2023-02-28T04:38:51;21;21;
65012;PMS5003;51715;39.432;-77.518;2023-02-28T04:41:20;18;18;
65012;PMS5003;51715;39.432;-77.518;2023-02-28T04:43:48;24;22;
65012;PMS5003;51715;39.432;-77.518;2023-02-28T04:46:19;16;16;
65012;PMS5003;51715;39.432;-77.518;2023-02-28T04:48:48;18;17;
65012;PMS5003;51715;39.432;-77.518;2023-02-28T04:51:18;19;19;
65012;PMS5003;51715;39.432;-77.518;2023-02-28T04:53:46;21;17;
65012;PMS5003;51715;39.432;-77.518;2023-02-28T04:56:16;19;17;
65012;PMS5003;51715;39.432;-77.518;2023-02-28T04:58:45;15;14;
65012;PMS5003;51715;39.432;-77.518;2023-02-28T05:04:03;23;22;
65012;PMS5003;51715;39.432;-77.518;2023-02-28T05:06:32;16;14;
65012;PMS5003;51715;39.432;-77.518;2023-02-28T05:09:00;17;17;
65012;PMS5003;51715;39.432;-77.518;2023-02-28T05:11:29;15;15;
65012;PMS5003;51715;39.432;-77.518;2023-02-28T05:14:00;15;14;
65012;PMS5003;51715;39.432;-77.518;2023-02-28T05:16:30;16;16;
65012;PMS5003;51715;39.432;-77.518;2023-02-28T05:18:59;16;15;
65012;PMS5003;51715;39.432;-77.518;2023-02-28T05:21:28;15;14;
65012;PMS5003;51715;39.432;-77.518;2023-02-28T05:23:59;12;12;
65012;PMS5003;51715;39.432;-77.518;2023-02-28T05:26:29;15;14;
65012;PMS5003;51715;39.432;-77.518;2023-02-28T05:28:58;15;13;
65012;PMS5003;51715;39.432;-77.518;2023-02-28T05:31:27;13;13;
65012;PMS5003;51715;39.432;-77.518;2023-02-28T05:33:56;12;12;
65012;PMS5003;51715;39.432;-77.518;2023-02-28T05:36:23;13;13;
65012;PMS5003;51715;39.432;-77.518;2023-02-28T05:38:52;13;13;
65012;PMS5003;51715;39.432;-77.518;2023-02-28T05:41:21;12;12;
65012;PMS5003;51715;39.432;-77.518;2023-02-28T05:43:49;10;9;
65012;PMS5003;51715;39.432;-77.518;2023-02-28T05:46:18;13;13;
65012;PMS5003;51715;39.432;-77.518;2023-02-28T05:48:47;13;13;
65012;PMS5003;51715;39.432;-77.518;2023-02-28T05:51:16;10;10;
65012;PMS5003;51715;39.432;-77.518;2023-02-28T05:53:44;15;14;
65012;PMS5003;51715;39.432;-77.518;2023-02-28T05:56:13;14;13;
65012;PMS5003;51715;39.432;-77.518;2023-02-28T05:58:42;13;12;
65012;PMS5003;51715;39.432;-77.518;2023-02-28T06:01:31;13;11;
65012;PMS5003;51715;39.432;-77.518;2023-02-28T06:04:01;15;13;
65012;PMS5003;51715;39.432;-77.518;2023-02-28T06:06:30;11;11;
65012;PMS5003;51715;39.432;-77.518;2023-02-28T06:08:58;14;12;
65012;PMS5003;51715;39.432;-77.518;2023-02-28T06:11:27;12;11;
65012;PMS5003;51715;39.432;-77.518;2023-02-28T06:13:56;17;16;
65012;PMS5003;51715;39.432;-77.518;2023-02-28T06:16:25;10;10;
65012;PMS5003;51715;39.432;-77.518;2023-02-28T06:18:56;13;13;
65012;PMS5003;51715;39.432;-77.518;2023-02-28T06:21:25;11;11;
65012;PMS5003;51715;39.432;-77.518;2023-02-28T06:23:55;13;12;
65012;PMS5003;51715;39.432;-77.518;2023-02-28T06:26:24;18;15;
65012;PMS5003;51715;39.432;-77.518;2023-02-28T06:28:53;11;11;
65012;PMS5003;51715;39.432;-77.518;2023-02-28T06:31:21;8;8;
65012;PMS5003;51715;39.432;-77.518;2023-02-28T06:33:51;9;9;
65012;PMS5003;51715;39.432;-77.518;2023-02-28T06:36:19;12;11;
65012;PMS5003;51715;39.432;-77.518;2023-02-28T06:38:47;10;10;
65012;PMS5003;51715;39.432;-77.518;2023-02-28T06:41:16;9;9;
65012;PMS5003;51715;39.432;-77.518;2023-02-28T06:43:44;7;7;
65012;PMS5003;51715;39.432;-77.518;2023-02-28T06:46:13;12;11;
65012;PMS5003;51715;39.432;-77.518;2023-02-28T06:48:42;12;12;
65012;PMS5003;51715;39.432;-77.518;2023-02-28T06:51:12;10;8;
65012;PMS5003;51715;39.432;-77.518;2023-02-28T06:53:42;10;10;
65012;PMS5003;51715;39.432;-77.518;2023-02-28T06:56:12;9;8;
65012;PMS5003;51715;39.432;-77.518;2023-02-28T06:58:45;9;7;
65012;PMS5003;51715;39.432;-77.518;2023-02-28T07:01:15;12;10;
65012;PMS5003;51715;39.432;-77.518;2023-02-28T07:03:44;11;9;
65012;PMS5003;51715;39.432;-77.518;2023-02-28T07:06:12;9;9;
65012;PMS5003;51715;39.432;-77.518;2023-02-28T07:08:40;9;9;
65012;PMS5003;51715;39.432;-77.518;2023-02-28T07:11:08;9;8;
65012;PMS5003;51715;39.432;-77.518;2023-02-28T07:13:37;7;7;
65012;PMS5003;51715;39.432;-77.518;2023-02-28T07:16:06;8;8;
65012;PMS5003;51715;39.432;-77.518;2023-02-28T07:18:37;8;8;
65012;PMS5003;51715;39.432;-77.518;2023-02-28T07:21:07;7;7;
65012;PMS5003;51715;39.432;-77.518;2023-02-28T07:23:39;10;10;
65012;PMS5003;51715;39.432;-77.518;2023-02-28T07:26:07;9;9;
65012;PMS5003;51715;39.432;-77.518;2023-02-28T07:28:39;8;8;
65012;PMS5003;51715;39.432;-77.518;2023-02-28T07:31:09;7;7;
65012;PMS5003;51715;39.432;-77.518;2023-02-28T07:33:38;8;8;
65012;PMS5003;51715;39.432;-77.518;2023-02-28T07:36:07;15;14;
65012;PMS5003;51715;39.432;-77.518;2023-02-28T07:38:37;15;14;
65012;PMS5003;51715;39.432;-77.518;2023-02-28T07:41:05;13;11;
65012;PMS5003;51715;39.432;-77.518;2023-02-28T07:43:33;13;12;
65012;PMS5003;51715;39.432;-77.518;2023-02-28T07:46:02;13;13;
65012;PMS5003;51715;39.432;-77.518;2023-02-28T07:48:32;16;15;
65012;PMS5003;51715;39.432;-77.518;2023-02-28T07:51:01;10;10;
65012;PMS5003;51715;39.432;-77.518;2023-02-28T07:53:30;14;13;
65012;PMS5003;51715;39.432;-77.518;2023-02-28T07:55:58;11;11;
65012;PMS5003;51715;39.432;-77.518;2023-02-28T07:58:28;11;11;
65012;PMS5003;51715;39.432;-77.518;2023-02-28T08:00:56;11;11;
65012;PMS5003;51715;39.432;-77.518;2023-02-28T08:03:33;13;12;
65012;PMS5003;51715;39.432;-77.518;2023-02-28T08:06:02;15;15;
65012;PMS5003;51715;39.432;-77.518;2023-02-28T08:08:30;9;9;
65012;PMS5003;51715;39.432;-77.518;2023-02-28T08:10:59;14;12;
65012;PMS5003;51715;39.432;-77.518;2023-02-28T08:13:29;9;9;
65012;PMS5003;51715;39.432;-77.518;2023-02-28T08:16:00;18;16;
65012;PMS5003;51715;39.432;-77.518;2023-02-28T08:18:29;13;11;
65012;PMS5003;51715;39.432;-77.518;2023-02-28T08:20:57;15;14;
65012;PMS5003;51715;39.432;-77.518;2023-02-28T08:23:25;11;11;
65012;PMS5003;51715;39.432;-77.518;2023-02-28T08:25:54;11;11;
65012;PMS5003;51715;39.432;-77.518;2023-02-28T08:28:23;13;11;
65012;PMS5003;51715;39.432;-77.518;2023-02-28T08:30:51;9;8;
65012;PMS5003;51715;39.432;-77.518;2023-02-28T08:33:18;12;11;
65012;PMS5003;51715;39.432;-77.518;2023-02-28T08:35:47;12;12;
65012;PMS5003;51715;39.432;-77.518;2023-02-28T08:38:14;13;11;
65012;PMS5003;51715;39.432;-77.518;2023-02-28T08:40:43;14;11;
65012;PMS5003;51715;39.432;-77.518;2023-02-28T08:43:11;13;13;
65012;PMS5003;51715;39.432;-77.518;2023-02-28T08:45:39;16;15;
65012;PMS5003;51715;39.432;-77.518;2023-02-28T08:48:07;19;16;
65012;PMS5003;51715;39.432;-77.518;2023-02-28T08:50:36;14;14;
65012;PMS5003;51715;39.432;-77.518;2023-02-28T08:53:04;17;17;
65012;PMS5003;51715;39.432;-77.518;2023-02-28T08:55:33;15;14;
65012;PMS5003;51715;39.432;-77.518;2023-02-28T08:58:01;20;16;
65012;PMS5003;51715;39.432;-77.518;2023-02-28T09:00:30;16;16;
65012;PMS5003;51715;39.432;-77.518;2023-02-28T09:02:57;16;14;
65012;PMS5003;51715;39.432;-77.518;2023-02-28T09:05:25;18;14;
65012;PMS5003;51715;39.432;-77.518;2023-02-28T09:07:54;16;15;
65012;PMS5003;51715;39.432;-77.518;2023-02-28T09:10:22;18;16;
65012;PMS5003;51715;39.432;-77.518;2023-02-28T09:12:51;17;17;
65012;PMS5003;51715;39.432;-77.518;2023-02-28T09:15:19;16;13;
65012;PMS5003;51715;39.432;-77.518;2023-02-28T09:17:48;17;16;
65012;PMS5003;51715;39.432;-77.518;2023-02-28T09:20:16;13;13;
65012;PMS5003;51715;39.432;-77.518;2023-02-28T09:22:44;14;14;
65012;PMS5003;51715;39.432;-77.518;2023-02-28T09:25:12;14;14;
65012;PMS5003;51715;39.432;-77.518;2023-02-28T09:27:40;15;15;
65012;PMS5003;51715;39.432;-77.518;2023-02-28T09:30:08;9;9;
65012;PMS5003;51715;39.432;-77.518;2023-02-28T09:32:38;12;11;
65012;PMS5003;51715;39.432;-77.518;2023-02-28T09:35:07;10;10;
65012;PMS5003;51715;39.432;-77.518;2023-02-28T09:37:36;9;8;
65012;PMS5003;51715;39.432;-77.518;2023-02-28T09:40:05;10;10;
65012;PMS5003;51715;39.432;-77.518;2023-02-28T09:42:36;11;10;
65012;PMS5003;51715;39.432;-77.518;2023-02-28T09:45:06;8;8;
65012;PMS5003;51715;39.432;-77.518;2023-02-28T09:47:45;8;8;
65012;PMS5003;51715;39.432;-77.518;2023-02-28T09:50:17;6;6;
65012;PMS5003;51715;39.432;-77.518;2023-02-28T09:52:56;7;5;
65012;PMS5003;51715;39.432;-77.518;2023-02-28T09:55:27;5;5;
65012;PMS5003;51715;39.432;-77.518;2023-02-28T09:58:00;4;4;
65012;PMS5003;51715;39.432;-77.518;2023-02-28T10:00:30;5;5;
65012;PMS5003;51715;39.432;-77.518;2023-02-28T10:03:12;3;3;
65012;PMS5003;51715;39.432;-77.518;2023-02-28T10:05:53;4;4;
65012;PMS5003;51715;39.432;-77.518;2023-02-28T10:08:29;3;3;
65012;PMS5003;51715;39.432;-77.518;2023-02-28T10:11:06;5;5;
65012;PMS5003;51715;39.432;-77.518;2023-02-28T10:13:48;5;5;
65012;PMS5003;51715;39.432;-77.518;2023-02-28T10:16:22;4;4;
65012;PMS5003;51715;39.432;-77.518;2023-02-28T10:18:56;4;3;
65012;PMS5003;51715;39.432;-77.518;2023-02-28T10:21:35;7;6;
65012;PMS5003;51715;39.432;-77.518;2023-02-28T10:24:13;6;6;
65012;PMS5003;51715;39.432;-77.518;2023-02-28T10:26:50;4;4;
65012;PMS5003;51715;39.432;-77.518;2023-02-28T10:29:23;4;4;
65012;PMS5003;51715;39.432;-77.518;2023-02-28T10:31:50;4;4;
65012;PMS5003;51715;39.432;-77.518;2023-02-28T10:34:19;4;3;
65012;PMS5003;51715;39.432;-77.518;2023-02-28T10:36:48;3;3;
65012;PMS5003;51715;39.432;-77.518;2023-02-28T10:39:35;4;3;
65012;PMS5003;51715;39.432;-77.518;2023-02-28T10:42:07;4;3;
65012;PMS5003;51715;39.432;-77.518;2023-02-28T10:44:47;3;3;
65012;PMS5003;51715;39.432;-77.518;2023-02-28T10:47:16;3;3;
65012;PMS5003;51715;39.432;-77.518;2023-02-28T10:49:47;4;4;
65012;PMS5003;51715;39.432;-77.518;2023-02-28T10:52:31;5;5;
65012;PMS5003;51715;39.432;-77.518;2023-02-28T10:55:15;6;6;
65012;PMS5003;51715;39.432;-77.518;2023-02-28T10:57:49;5;5;
65012;PMS5003;51715;39.432;-77.518;2023-02-28T11:00:18;5;5;
65012;PMS5003;51715;39.432;-77.518;2023-02-28T11:02:48;6;4;
65012;PMS5003;51715;39.432;-77.518;2023-02-28T11:05:26;5;5;
65012;PMS5003;51715;39.432;-77.518;2023-02-28T11:07:57;3;3;
65012;PMS5003;51715;39.432;-77.518;2023-02-28T11:10:31;6;4;
65012;PMS5003;51715;39.432;-77.518;2023-02-28T11:13:00;5;4;
65012;PMS5003;51715;39.432;-77.518;2023-02-28T11:15:30;4;4;
65012;PMS5003;51715;39.432;-77.518;2023-02-28T11:18:02;5;4;
65012;PMS5003;51715;39.432;-77.518;2023-02-28T11:20:41;5;5;
65012;PMS5003;51715;39.432;-77.518;2023-02-28T11:23:14;6;6;
65012;PMS5003;51715;39.432;-77.518;2023-02-28T11:25:46;6;6;
65012;PMS5003;51715;39.432;-77.518;2023-02-28T11:28:26;7;6;
65012;PMS5003;51715;39.432;-77.518;2023-02-28T11:31:02;5;5;
65012;PMS5003;51715;39.432;-77.518;2023-02-28T11:33:46;6;6;
65012;PMS5003;51715;39.432;-77.518;2023-02-28T11:36:17;7;7;
65012;PMS5003;51715;39.432;-77.518;2023-02-28T11:38:47;9;8;
65012;PMS5003;51715;39.432;-77.518;2023-02-28T11:41:21;7;7;
65012;PMS5003;51715;39.432;-77.518;2023-02-28T11:44:07;6;6;
65012;PMS5003;51715;39.432;-77.518;2023-02-28T11:46:48;11;10;
65012;PMS5003;51715;39.432;-77.518;2023-02-28T11:49:23;10;10;
65012;PMS5003;51715;39.432;-77.518;2023-02-28T11:52:01;9;8;
65012;PMS5003;51715;39.432;-77.518;2023-02-28T11:54:38;10;9;
65012;PMS5003;51715;39.432;-77.518;2023-02-28T11:57:24;10;10;
65012;PMS5003;51715;39.432;-77.518;2023-02-28T12:00:01;13;10;
65012;PMS5003;51715;39.432;-77.518;2023-02-28T12:02:36;9;9;
65012;PMS5003;51715;39.432;-77.518;2023-02-28T12:05:21;11;10;
65012;PMS5003;51715;39.432;-77.518;2023-02-28T12:07:58;11;9;
65012;PMS5003;51715;39.432;-77.518;2023-02-28T12:10:39;12;12;
65012;PMS5003;51715;39.432;-77.518;2023-02-28T12:13:21;15;12;
65012;PMS5003;51715;39.432;-77.518;2023-02-28T12:16:00;13;11;
65012;PMS5003;51715;39.432;-77.518;2023-02-28T12:18:50;13;13;
65012;PMS5003;51715;39.432;-77.518;2023-02-28T12:21:30;21;11;
65012;PMS5003;51715;39.432;-77.518;2023-02-28T12:24:15;14;12;
65012;PMS5003;51715;39.432;-77.518;2023-02-28T12:26:52;21;15;
65012;PMS5003;51715;39.432;-77.518;2023-02-28T12:29:23;15;15;
65012;PMS5003;51715;39.432;-77.518;2023-02-28T12:31:54;16;12;
65012;PMS5003;51715;39.432;-77.518;2023-02-28T12:34:31;14;14;
65012;PMS5003;51715;39.432;-77.518;2023-02-28T12:37:05;14;14;
65012;PMS5003;51715;39.432;-77.518;2023-02-28T12:39:40;17;17;
65012;PMS5003;51715;39.432;-77.518;2023-02-28T12:42:13;14;13;
65012;PMS5003;51715;39.432;-77.518;2023-02-28T12:44:49;13;12;
65012;PMS5003;51715;39.432;-77.518;2023-02-28T12:47:24;14;14;
65012;PMS5003;51715;39.432;-77.518;2023-02-28T12:49:53;19;18;
65012;PMS5003;51715;39.432;-77.518;2023-02-28T12:52:29;17;16;
65012;PMS5003;51715;39.432;-77.518;2023-02-28T12:55:11;14;13;
65012;PMS5003;51715;39.432;-77.518;2023-02-28T12:57:49;18;15;
65012;PMS5003;51715;39.432;-77.518;2023-02-28T13:00:28;17;16;
65012;PMS5003;51715;39.432;-77.518;2023-02-28T13:03:10;13;13;
65012;PMS5003;51715;39.432;-77.518;2023-02-28T13:05:58;12;12;
65012;PMS5003;51715;39.432;-77.518;2023-02-28T13:08:41;14;14;
65012;PMS5003;51715;39.432;-77.518;2023-02-28T13:11:28;13;11;
65012;PMS5003;51715;39.432;-77.518;2023-02-28T13:13:59;8;8;
65012;PMS5003;51715;39.432;-77.518;2023-02-28T13:16:47;13;10;
65012;PMS5003;51715;39.432;-77.518;2023-02-28T13:19:20;14;13;
65012;PMS5003;51715;39.432;-77.518;2023-02-28T13:21:52;18;14;
65012;PMS5003;51715;39.432;-77.518;2023-02-28T13:24:39;10;10;
65012;PMS5003;51715;39.432;-77.518;2023-02-28T13:27:19;10;10;
65012;PMS5003;51715;39.432;-77.518;2023-02-28T13:29:51;10;8;
65012;PMS5003;51715;39.432;-77.518;2023-02-28T13:32:29;12;12;
65012;PMS5003;51715;39.432;-77.518;2023-02-28T13:35:34;9;9;
65012;PMS5003;51715;39.432;-77.518;2023-02-28T13:38:12;12;10;
65012;PMS5003;51715;39.432;-77.518;2023-02-28T13:41:48;12;11;
65012;PMS5003;51715;39.432;-77.518;2023-02-28T13:44:18;13;13;
65012;PMS5003;51715;39.432;-77.518;2023-02-28T13:47:22;11;9;
65012;PMS5003;51715;39.432;-77.518;2023-02-28T13:50:14;15;14;
65012;PMS5003;51715;39.432;-77.518;2023-02-28T13:52:50;19;17;
65012;PMS5003;51715;39.432;-77.518;2023-02-28T13:55:35;13;13;
65012;PMS5003;51715;39.432;-77.518;2023-02-28T13:58:18;14;12;
65012;PMS5003;51715;39.432;-77.518;2023-02-28T14:01:00;11;8;
65012;PMS5003;51715;39.432;-77.518;2023-02-28T14:03:46;12;12;
65012;PMS5003;51715;39.432;-77.518;2023-02-28T14:06:27;10;10;
65012;PMS5003;51715;39.432;-77.518;2023-02-28T14:08:59;13;13;
65012;PMS5003;51715;39.432;-77.518;2023-02-28T14:11:30;12;11;
65012;PMS5003;51715;39.432;-77.518;2023-02-28T14:14:01;13;12;
65012;PMS5003;51715;39.432;-77.518;2023-02-28T14:16:36;12;12;
65012;PMS5003;51715;39.432;-77.518;2023-02-28T14:19:11;12;12;
65012;PMS5003;51715;39.432;-77.518;2023-02-28T14:21:47;9;9;
65012;PMS5003;51715;39.432;-77.518;2023-02-28T14:24:38;12;12;
65012;PMS5003;51715;39.432;-77.518;2023-02-28T14:27:22;11;9;
65012;PMS5003;51715;39.432;-77.518;2023-02-28T14:31:18;11;11;
65012;PMS5003;51715;39.432;-77.518;2023-02-28T14:33:59;12;11;
65012;PMS5003;51715;39.432;-77.518;2023-02-28T14:36:43;13;11;
65012;PMS5003;51715;39.432;-77.518;2023-02-28T14:39:14;7;7;
65012;PMS5003;51715;39.432;-77.518;2023-02-28T14:41:46;11;11;
65012;PMS5003;51715;39.432;-77.518;2023-02-28T14:44:16;9;9;
65012;PMS5003;51715;39.432;-77.518;2023-02-28T14:46:48;11;11;
65012;PMS5003;51715;39.432;-77.518;2023-02-28T14:49:18;17;15;
65012;PMS5003;51715;39.432;-77.518;2023-02-28T14:51:49;18;15;
65012;PMS5003;51715;39.432;-77.518;2023-02-28T14:54:30;19;16;
65012;PMS5003;51715;39.432;-77.518;2023-02-28T14:56:58;17;16;
65012;PMS5003;51715;39.432;-77.518;2023-02-28T14:59:28;18;17;
65012;PMS5003;51715;39.432;-77.518;2023-02-28T15:02:15;19;18;
65012;PMS5003;51715;39.432;-77.518;2023-02-28T15:04:56;16;16;
65012;PMS5003;51715;39.432;-77.518;2023-02-28T15:07:26;21;17;
65012;PMS5003;51715;39.432;-77.518;2023-02-28T15:10:16;19;19;
65012;PMS5003;51715;39.432;-77.518;2023-02-28T15:12:49;15;12;
65012;PMS5003;51715;39.432;-77.518;2023-02-28T15:15:20;15;14;
65012;PMS5003;51715;39.432;-77.518;2023-02-28T15:17:54;23;21;
65012;PMS5003;51715;39.432;-77.518;2023-02-28T15:20:25;15;14;
65012;PMS5003;51715;39.432;-77.518;2023-02-28T15:22:54;21;19;
65012;PMS5003;51715;39.432;-77.518;2023-02-28T15:25:25;16;14;
65012;PMS5003;51715;39.432;-77.518;2023-02-28T15:27:55;13;12;
65012;PMS5003;51715;39.432;-77.518;2023-02-28T15:30:24;16;15;
65012;PMS5003;51715;39.432;-77.518;2023-02-28T15:33:03;17;15;
65012;PMS5003;51715;39.432;-77.518;2023-02-28T15:35:45;18;18;
65012;PMS5003;51715;39.432;-77.518;2023-02-28T15:38:15;16;13;
65012;PMS5003;51715;39.432;-77.518;2023-02-28T15:40:50;12;11;
65012;PMS5003;51715;39.432;-77.518;2023-02-28T15:43:23;12;12;
65012;PMS5003;51715;39.432;-77.518;2023-02-28T15:45:55;11;11;
65012;PMS5003;51715;39.432;-77.518;2023-02-28T15:48:28;13;12;
65012;PMS5003;51715;39.432;-77.518;2023-02-28T15:51:02;15;13;
65012;PMS5003;51715;39.432;-77.518;2023-02-28T15:53:36;15;14;
65012;PMS5003;51715;39.432;-77.518;2023-02-28T15:56:16;12;12;
65012;PMS5003;51715;39.432;-77.518;2023-02-28T15:58:53;14;11;
65012;PMS5003;51715;39.432;-77.518;2023-02-28T16:01:24;12;11;
65012;PMS5003;51715;39.432;-77.518;2023-02-28T16:03:56;19;17;
65012;PMS5003;51715;39.432;-77.518;2023-02-28T16:06:36;20;15;
65012;PMS5003;51715;39.432;-77.518;2023-02-28T16:09:08;13;13;
65012;PMS5003;51715;39.432;-77.518;2023-02-28T16:11:39;14;13;
65012;PMS5003;51715;39.432;-77.518;2023-02-28T16:14:12;12;12;
65012;PMS5003;51715;39.432;-77.518;2023-02-28T16:16:45;14;14;
65012;PMS5003;51715;39.432;-77.518;2023-02-28T16:19:15;18;18;
65012;PMS5003;51715;39.432;-77.518;2023-02-28T16:21:44;14;14;
65012;PMS5003;51715;39.432;-77.518;2023-02-28T16:24:14;14;13;
65012;PMS5003;51715;39.432;-77.518;2023-02-28T16:26:44;13;13;
65012;PMS5003;51715;39.432;-77.518;2023-02-28T16:29:15;20;19;
65012;PMS5003;51715;39.432;-77.518;2023-02-28T16:31:49;20;17;
65012;PMS5003;51715;39.432;-77.518;2023-02-28T16:34:18;19;17;